createdAt,value
2018-06-02T00:02:22.309Z,21.50
2018-06-02T00:04:49.871Z,21.50
2018-06-02T00:07:17.425Z,21.40
2018-06-02T00:09:45.000Z,21.30
2018-06-02T00:12:12.536Z,21.40
2018-06-02T00:14:40.109Z,21.30
2018-06-02T00:17:07.710Z,21.30
2018-06-02T00:19:35.280Z,21.50
2018-06-02T00:22:02.882Z,21.50
2018-06-02T00:24:30.402Z,21.40
2018-06-02T00:26:58.008Z,21.30
2018-06-02T00:29:25.645Z,21.20
2018-06-02T00:31:53.199Z,21.30
2018-06-02T00:34:20.754Z,21.30
2018-06-02T00:36:49.045Z,21.30
2018-06-02T00:39:16.624Z,21.20
2018-06-02T00:41:44.205Z,21.30
2018-06-02T00:44:12.529Z,21.40
2018-06-02T00:46:40.125Z,21.30
2018-06-02T00:49:07.652Z,21.30
2018-06-02T00:51:36.011Z,21.20
2018-06-02T00:54:04.339Z,21.20
2018-06-02T00:56:31.916Z,21.20
2018-06-02T00:58:59.442Z,21.20
2018-06-02T01:01:26.995Z,21.20
2018-06-02T01:03:54.560Z,21.10
2018-06-02T01:06:22.125Z,21.10
2018-06-02T01:08:49.651Z,21.10
2018-06-02T01:11:17.240Z,21.00
2018-06-02T01:13:44.778Z,21.00
2018-06-02T01:16:12.307Z,21.00
2018-06-02T01:18:39.859Z,20.80
2018-06-02T01:21:07.380Z,20.80
2018-06-02T01:23:34.943Z,20.80
2018-06-02T01:26:02.470Z,20.80
2018-06-02T01:28:30.059Z,20.80
2018-06-02T01:30:57.587Z,20.80
2018-06-02T01:33:25.232Z,20.80
2018-06-02T01:35:53.580Z,20.90
2018-06-02T01:38:21.358Z,20.80
2018-06-02T01:40:48.920Z,21.00
2018-06-02T01:43:16.484Z,21.10
2018-06-02T01:45:44.004Z,21.10
2018-06-02T01:48:11.557Z,21.10
2018-06-02T01:50:39.097Z,21.00
2018-06-02T01:53:06.684Z,21.10
2018-06-02T01:55:34.253Z,21.10
2018-06-02T01:58:01.822Z,21.10
2018-06-02T02:00:29.372Z,21.00
2018-06-02T02:02:56.990Z,20.80
2018-06-02T02:05:24.519Z,20.80
2018-06-02T02:07:52.132Z,20.80
2018-06-02T02:10:19.705Z,20.90
2018-06-02T02:12:47.285Z,21.00
2018-06-02T02:15:14.800Z,20.90
2018-06-02T02:17:43.114Z,20.90
2018-06-02T02:20:10.687Z,20.90
2018-06-02T02:22:38.220Z,21.00
2018-06-02T02:25:05.793Z,21.00
2018-06-02T02:27:33.380Z,20.90
2018-06-02T02:30:00.908Z,20.80
2018-06-02T02:32:28.458Z,20.80
2018-06-02T02:34:56.030Z,20.80
2018-06-02T02:37:23.568Z,20.80
2018-06-02T02:39:51.139Z,20.60
2018-06-02T02:42:18.689Z,20.60
2018-06-02T02:44:46.225Z,20.60
2018-06-02T02:47:14.580Z,20.50
2018-06-02T02:49:42.108Z,20.50
2018-06-02T02:52:09.650Z,20.50
2018-06-02T02:54:37.214Z,20.60
2018-06-02T02:57:04.758Z,20.70
2018-06-02T02:59:32.319Z,20.80
2018-06-02T03:01:59.907Z,20.80
2018-06-02T03:04:27.553Z,20.70
2018-06-02T03:06:55.114Z,20.70
2018-06-02T03:09:22.649Z,20.70
2018-06-02T03:11:50.224Z,20.60
2018-06-02T03:14:17.757Z,20.60
2018-06-02T03:16:46.108Z,20.60
2018-06-02T03:19:13.632Z,20.60
2018-06-02T03:21:41.277Z,20.70
2018-06-02T03:24:08.852Z,20.60
2018-06-02T03:26:36.377Z,20.40
2018-06-02T03:29:03.964Z,20.20
2018-06-02T03:31:31.499Z,20.30
2018-06-02T03:33:59.824Z,20.10
2018-06-02T03:36:27.446Z,20.10
2018-06-02T03:38:55.736Z,20.10
2018-06-02T03:41:23.297Z,20.10
2018-06-02T03:43:50.852Z,20.00
2018-06-02T03:46:18.382Z,20.00
2018-06-02T03:48:45.968Z,20.00
2018-06-02T03:51:13.532Z,19.90
2018-06-02T03:53:41.091Z,20.00
2018-06-02T03:56:09.410Z,19.90
2018-06-02T03:58:36.968Z,19.90
2018-06-02T04:01:04.494Z,19.90
2018-06-02T04:03:32.054Z,19.80
2018-06-02T04:05:59.634Z,19.80
2018-06-02T04:08:27.176Z,19.80
2018-06-02T04:10:54.706Z,19.80
2018-06-02T04:13:23.139Z,19.80
2018-06-02T04:15:50.793Z,19.90
2018-06-02T04:18:18.338Z,20.00
2018-06-02T04:20:45.915Z,20.00
2018-06-02T04:23:13.488Z,19.90
2018-06-02T04:25:41.051Z,20.00
2018-06-02T04:28:08.575Z,20.10
2018-06-02T04:30:36.209Z,20.20
2018-06-02T04:33:03.747Z,20.30
2018-06-02T04:35:31.330Z,20.30
2018-06-02T04:37:59.688Z,20.40
2018-06-02T04:40:27.252Z,20.40
2018-06-02T04:42:54.789Z,20.40
2018-06-02T04:45:22.370Z,20.40
2018-06-02T04:47:49.908Z,20.50
2018-06-02T04:50:17.455Z,20.60
2018-06-02T04:52:45.055Z,20.60
2018-06-02T04:55:12.607Z,20.50
2018-06-02T04:57:40.193Z,20.50
2018-06-02T05:00:08.499Z,20.70
2018-06-02T05:02:36.067Z,20.70
2018-06-02T05:05:03.598Z,20.70
2018-06-02T05:07:31.240Z,20.80
2018-06-02T05:09:59.793Z,20.80
2018-06-02T05:12:27.359Z,20.90
2018-06-02T05:14:54.884Z,21.00
2018-06-02T05:17:22.440Z,21.00
2018-06-02T05:19:50.027Z,21.00
2018-06-02T05:22:17.552Z,21.10
2018-06-02T05:24:45.181Z,21.10
2018-06-02T05:27:12.719Z,21.10
2018-06-02T05:29:40.287Z,21.10
2018-06-02T05:32:07.853Z,21.20
2018-06-02T05:34:35.457Z,21.20
2018-06-02T05:37:03.035Z,21.20
2018-06-02T05:39:30.575Z,21.30
2018-06-02T05:41:58.154Z,21.30
2018-06-02T05:44:25.818Z,21.40
2018-06-02T05:46:53.359Z,21.40
2018-06-02T05:49:20.920Z,21.40
2018-06-02T05:51:48.543Z,21.40
2018-06-02T05:54:16.068Z,21.30
2018-06-02T05:56:43.664Z,21.40
2018-06-02T05:59:11.242Z,21.40
2018-06-02T06:01:39.542Z,21.50
2018-06-02T06:04:07.097Z,21.50
2018-06-02T06:06:34.660Z,21.60
2018-06-02T06:09:02.199Z,21.70
2018-06-02T06:11:29.761Z,21.70
2018-06-02T06:13:58.084Z,21.80
2018-06-02T06:16:25.645Z,21.70
2018-06-02T06:18:53.217Z,21.70
2018-06-02T06:21:20.787Z,21.80
2018-06-02T06:23:48.349Z,21.80
2018-06-02T06:26:15.877Z,21.90
2018-06-02T06:28:43.512Z,21.90
2018-06-02T06:31:11.044Z,22.00
2018-06-02T06:33:38.620Z,22.10
2018-06-02T06:36:06.908Z,22.10
2018-06-02T06:38:34.537Z,22.10
2018-06-02T06:41:02.123Z,22.20
2018-06-02T06:43:29.664Z,22.30
2018-06-02T06:45:57.223Z,22.30
2018-06-02T06:48:25.585Z,22.40
2018-06-02T06:50:53.125Z,22.30
2018-06-02T06:53:20.680Z,22.40
2018-06-02T06:55:48.248Z,22.40
2018-06-02T06:58:15.846Z,22.30
2018-06-02T07:00:43.384Z,22.30
2018-06-02T07:03:10.917Z,22.40
2018-06-02T07:05:38.505Z,22.40
2018-06-02T07:08:06.065Z,22.40
2018-06-02T07:10:33.609Z,22.50
2018-06-02T07:13:01.170Z,22.70
2018-06-02T07:15:28.880Z,22.70
2018-06-02T07:17:56.468Z,22.70
2018-06-02T07:20:24.052Z,22.80
2018-06-02T07:22:51.601Z,22.80
2018-06-02T08:47:16.263Z,22.80
2018-06-02T08:49:43.936Z,23.30
2018-06-02T08:52:11.537Z,23.50
2018-06-02T08:54:39.097Z,23.70
2018-06-02T08:57:07.269Z,23.80
2018-06-02T08:59:34.851Z,23.90
2018-06-02T09:02:02.415Z,23.90
2018-06-02T09:04:30.004Z,24.00
2018-06-02T09:06:57.546Z,24.10
2018-06-02T09:09:25.093Z,24.20
2018-06-02T09:11:52.654Z,24.30
2018-06-02T09:14:20.227Z,24.40
2018-06-02T09:16:47.773Z,24.50
2018-06-02T09:19:15.351Z,24.50
2018-06-02T09:21:42.958Z,24.60
2018-06-02T09:24:10.503Z,24.70
2018-06-02T09:26:38.021Z,24.80
2018-06-02T09:29:05.610Z,24.90
2018-06-02T09:31:33.188Z,24.90
2018-06-02T09:34:00.774Z,25.00
2018-06-02T09:36:28.356Z,25.00
2018-06-02T09:38:55.923Z,25.00
2018-06-02T09:41:23.454Z,25.00
2018-06-02T09:43:51.055Z,25.00
2018-06-02T09:46:18.695Z,25.00
2018-06-02T09:48:46.264Z,24.90
2018-06-02T09:51:13.856Z,24.90
2018-06-02T09:53:42.196Z,24.90
2018-06-02T09:56:09.873Z,24.90
2018-06-02T09:58:37.443Z,24.90
2018-06-02T10:01:05.033Z,24.90
2018-06-02T10:03:33.372Z,24.90
2018-06-02T10:06:00.892Z,25.00
2018-06-02T10:08:28.503Z,25.00
2018-06-02T10:10:56.050Z,25.10
2018-06-02T10:13:23.608Z,25.10
2018-06-02T10:15:51.157Z,25.10
2018-06-02T10:18:18.744Z,25.10
2018-06-02T10:20:46.341Z,25.10
2018-06-02T10:23:14.156Z,25.10
2018-06-02T10:25:41.771Z,25.00
2018-06-02T10:28:10.100Z,24.80
2018-06-02T10:30:37.639Z,24.80
2018-06-02T10:33:05.219Z,24.70
2018-06-02T10:35:32.790Z,24.60
2018-06-02T10:38:00.386Z,24.60
2018-06-02T10:40:27.992Z,24.50
2018-06-02T10:42:55.603Z,24.60
2018-06-02T10:45:23.232Z,24.50
2018-06-02T10:47:50.820Z,24.50
2018-06-02T10:50:18.374Z,24.40
2018-06-02T10:52:46.004Z,24.40
2018-06-02T10:55:13.569Z,24.40
2018-06-02T10:57:41.178Z,24.30
2018-06-02T11:00:08.742Z,24.40
2018-06-02T11:02:37.177Z,24.40
2018-06-02T11:05:04.768Z,24.40
2018-06-02T11:07:33.116Z,24.50
2018-06-02T11:10:00.743Z,24.50
2018-06-02T11:12:28.295Z,24.60
2018-06-02T11:14:55.895Z,24.60
2018-06-02T11:17:23.479Z,24.60
2018-06-02T11:19:51.007Z,24.70
2018-06-02T11:22:18.601Z,24.70
2018-06-02T11:24:46.928Z,24.80
2018-06-02T11:27:14.509Z,24.80
2018-06-02T11:29:42.074Z,24.80
2018-06-02T11:32:09.647Z,24.90
2018-06-02T11:34:37.241Z,24.90
2018-06-02T11:37:04.849Z,24.90
2018-06-02T11:39:32.445Z,25.00
2018-06-02T11:42:00.829Z,24.90
2018-06-02T11:44:28.394Z,24.90
2018-06-02T11:46:56.727Z,24.80
2018-06-02T11:49:24.267Z,24.80
2018-06-02T11:51:51.818Z,24.90
2018-06-02T11:54:19.466Z,25.00
2018-06-02T11:56:47.172Z,25.10
2018-06-02T11:59:14.735Z,25.20
2018-06-02T12:01:42.348Z,25.10
2018-06-02T12:04:09.927Z,25.10
2018-06-02T12:06:37.506Z,25.10
2018-06-02T12:09:05.958Z,25.10
2018-06-02T12:11:33.520Z,25.20
2018-06-02T12:14:01.061Z,25.20
2018-06-02T12:16:29.452Z,25.30
2018-06-02T12:18:57.045Z,25.30
2018-06-02T12:21:24.583Z,25.40
2018-06-02T12:23:52.145Z,25.40
2018-06-02T12:26:19.755Z,25.40
2018-06-02T12:28:47.306Z,25.40
2018-06-02T12:31:15.013Z,25.40
2018-06-02T12:33:42.595Z,25.50
2018-06-02T12:36:10.374Z,25.50
2018-06-02T12:38:37.949Z,25.40
2018-06-02T12:41:05.715Z,25.40
2018-06-02T12:43:33.246Z,25.40
2018-06-02T12:46:01.026Z,25.30
2018-06-02T12:48:28.567Z,25.40
2018-06-02T12:50:56.126Z,25.40
2018-06-02T12:53:23.717Z,25.50
2018-06-02T12:55:51.251Z,25.60
2018-06-02T12:58:18.804Z,25.60
2018-06-02T13:00:46.406Z,25.60
2018-06-02T13:03:14.026Z,25.60
2018-06-02T13:05:41.624Z,25.60
2018-06-02T13:08:09.171Z,25.60
2018-06-02T13:10:36.746Z,25.50
2018-06-02T13:13:05.089Z,25.50
2018-06-02T13:15:32.645Z,25.40
2018-06-02T13:18:00.231Z,25.40
2018-06-02T13:20:27.863Z,25.40
2018-06-02T13:22:55.399Z,25.50
2018-06-02T13:25:23.013Z,25.70
2018-06-02T13:27:50.576Z,25.70
2018-06-02T13:30:18.136Z,25.80
2018-06-02T13:32:45.724Z,25.80
2018-06-02T13:35:14.103Z,25.90
2018-06-02T13:37:42.539Z,26.00
2018-06-02T13:40:10.068Z,25.90
2018-06-02T13:42:37.592Z,25.90
2018-06-02T13:45:05.938Z,26.00
2018-06-02T13:47:33.560Z,26.00
2018-06-02T13:50:01.881Z,26.10
2018-06-02T13:52:29.471Z,26.00
2018-06-02T13:54:57.084Z,26.10
2018-06-02T13:57:24.645Z,26.10
2018-06-02T13:59:52.213Z,26.10
2018-06-02T14:02:19.791Z,26.10
2018-06-02T14:04:47.329Z,26.00
2018-06-02T14:07:14.901Z,26.10
2018-06-02T14:09:42.430Z,26.10
2018-06-02T14:12:09.976Z,26.10
2018-06-02T14:14:37.567Z,26.00
2018-06-02T14:17:05.202Z,26.00
2018-06-02T14:19:32.790Z,26.00
2018-06-02T14:22:00.351Z,26.10
2018-06-02T14:24:27.891Z,26.20
2018-06-02T14:26:55.453Z,26.10
2018-06-02T14:29:22.982Z,26.10
2018-06-02T14:31:51.305Z,26.10
2018-06-02T14:34:18.893Z,26.10
2018-06-02T14:36:46.443Z,26.10
2018-06-02T14:39:14.003Z,26.10
2018-06-02T14:41:41.601Z,26.10
2018-06-02T14:44:11.164Z,26.10
2018-06-02T14:46:38.719Z,26.10
2018-06-02T14:49:06.316Z,26.10
2018-06-02T14:51:33.885Z,26.10
2018-06-02T14:54:02.201Z,26.10
2018-06-02T14:56:29.768Z,26.10
2018-06-02T14:58:57.308Z,26.10
2018-06-02T15:01:24.988Z,26.10
2018-06-02T15:03:52.616Z,26.10
2018-06-02T15:06:20.127Z,26.20
2018-06-02T15:08:47.671Z,26.20
2018-06-02T15:11:15.238Z,26.30
2018-06-02T15:13:42.851Z,26.40
2018-06-02T15:16:10.371Z,26.40
2018-06-02T15:18:37.932Z,26.40
2018-06-02T15:21:05.517Z,26.40
2018-06-02T15:23:33.853Z,26.30
2018-06-02T15:26:01.375Z,26.30
2018-06-02T15:28:28.947Z,26.20
2018-06-02T15:30:56.490Z,26.10
2018-06-02T15:33:24.106Z,26.10
2018-06-02T15:35:51.714Z,26.10
2018-06-02T15:38:20.051Z,26.10
2018-06-02T15:40:47.580Z,25.50
2018-06-02T15:43:15.152Z,26.10
2018-06-02T15:45:42.688Z,26.20
2018-06-02T15:48:10.308Z,26.20
2018-06-02T15:50:37.925Z,26.20
2018-06-02T15:53:05.495Z,26.20
2018-06-02T15:55:33.042Z,26.10
2018-06-02T15:58:00.633Z,26.10
2018-06-02T16:00:28.216Z,26.00
2018-06-02T16:02:56.555Z,25.90
2018-06-02T16:05:24.083Z,25.90
2018-06-02T16:07:52.406Z,25.80
2018-06-02T16:10:19.956Z,25.80
2018-06-02T16:12:47.529Z,25.80
2018-06-02T16:15:15.085Z,25.90
2018-06-02T16:17:42.623Z,25.90
2018-06-02T16:20:10.260Z,25.90
2018-06-02T16:22:37.793Z,25.80
2018-06-02T16:25:06.119Z,25.80
2018-06-02T16:27:33.661Z,25.70
2018-06-02T16:30:01.237Z,25.80
2018-06-02T16:32:29.581Z,25.70
2018-06-02T16:34:57.161Z,25.70
2018-06-02T16:37:24.693Z,25.70
2018-06-02T16:39:53.031Z,25.70
2018-06-02T16:42:20.584Z,25.70
2018-06-02T16:44:48.207Z,25.70
2018-06-02T16:47:15.788Z,25.70
2018-06-02T16:49:43.953Z,25.70
2018-06-02T16:52:11.530Z,25.70
2018-06-02T16:54:39.099Z,25.70
2018-06-02T16:57:06.632Z,25.70
2018-06-02T16:59:34.192Z,25.70
2018-06-02T17:02:01.740Z,25.70
2018-06-02T17:04:30.123Z,25.70
2018-06-02T17:06:58.436Z,25.60
2018-06-02T17:09:25.970Z,25.60
2018-06-02T17:11:53.602Z,25.70
2018-06-02T17:14:21.985Z,25.60
2018-06-02T17:16:49.555Z,25.60
2018-06-02T17:19:17.122Z,25.70
2018-06-02T17:21:45.127Z,25.60
2018-06-02T17:24:12.685Z,25.60
2018-06-02T17:26:40.249Z,25.60
2018-06-02T17:29:07.910Z,25.60
2018-06-02T17:31:35.458Z,25.60
2018-06-02T17:34:03.036Z,25.60
2018-06-02T17:36:30.573Z,25.60
2018-06-02T17:38:58.150Z,25.60
2018-06-02T17:41:25.761Z,25.50
2018-06-02T17:43:53.398Z,25.50
2018-06-02T17:46:20.951Z,25.50
2018-06-02T17:48:49.304Z,25.50
2018-06-02T17:51:16.929Z,25.50
2018-06-02T17:53:44.501Z,25.50
2018-06-02T17:56:12.024Z,25.40
2018-06-02T17:58:39.568Z,25.40
2018-06-02T18:01:07.159Z,25.40
2018-06-02T18:03:35.497Z,25.30
2018-06-02T18:06:03.129Z,25.30
2018-06-02T18:08:30.700Z,25.30
2018-06-02T18:10:58.249Z,25.30
2018-06-02T18:13:25.763Z,25.20
2018-06-02T18:15:53.345Z,25.20
2018-06-02T18:18:20.871Z,25.20
2018-06-02T18:20:48.502Z,25.20
2018-06-02T18:23:16.592Z,25.20
2018-06-02T18:25:44.226Z,25.20
2018-06-02T18:28:11.811Z,25.10
2018-06-02T18:30:39.346Z,25.20
2018-06-02T18:33:06.920Z,25.20
2018-06-02T18:35:34.466Z,25.20
2018-06-02T18:38:02.055Z,25.20
2018-06-02T18:40:29.632Z,25.30
2018-06-02T18:42:57.978Z,25.30
2018-06-02T18:45:25.552Z,25.30
2018-06-02T18:47:53.141Z,25.20
2018-06-02T18:50:21.463Z,25.10
2018-06-02T18:52:49.061Z,25.10
2018-06-02T18:55:16.646Z,25.10
2018-06-02T18:57:44.965Z,25.10
2018-06-02T19:00:12.520Z,25.00
2018-06-02T19:02:40.040Z,25.00
2018-06-02T19:05:08.371Z,25.10
2018-06-02T19:07:35.931Z,25.10
2018-06-02T19:10:03.461Z,25.10
2018-06-02T19:12:31.142Z,25.10
2018-06-02T19:14:58.716Z,25.10
2018-06-02T19:17:26.273Z,25.00
2018-06-02T19:19:53.891Z,25.00
2018-06-02T19:22:21.495Z,24.90
2018-06-02T19:24:49.013Z,24.90
2018-06-02T19:27:16.600Z,24.90
2018-06-02T19:29:44.201Z,24.80
2018-06-02T19:32:11.797Z,24.90
2018-06-02T19:34:39.388Z,24.80
2018-06-02T19:37:07.030Z,24.80
2018-06-02T19:39:34.564Z,24.80
2018-06-02T19:42:02.898Z,24.70
2018-06-02T19:44:30.411Z,24.70
2018-06-02T19:46:58.260Z,24.70
2018-06-02T19:49:26.598Z,24.60
2018-06-02T19:51:54.163Z,24.60
2018-06-02T19:54:21.820Z,24.60
2018-06-02T19:56:49.363Z,24.60
2018-06-02T19:59:16.942Z,24.50
2018-06-02T20:01:44.490Z,24.50
2018-06-02T20:04:12.105Z,24.40
2018-06-02T20:06:39.648Z,24.40
2018-06-02T20:09:07.212Z,24.40
2018-06-02T20:11:35.565Z,24.30
2018-06-02T20:14:03.106Z,24.30
2018-06-02T20:16:30.640Z,24.30
2018-06-02T20:18:58.188Z,24.20
2018-06-02T20:21:25.766Z,24.20
2018-06-02T20:23:53.349Z,24.10
2018-06-02T20:26:20.928Z,24.10
2018-06-02T20:28:48.771Z,24.10
2018-06-02T20:31:16.304Z,24.10
2018-06-02T20:33:43.894Z,24.10
2018-06-02T20:36:11.474Z,24.00
2018-06-02T20:38:38.982Z,23.90
2018-06-02T20:41:06.572Z,23.90
2018-06-02T20:43:34.148Z,23.90
2018-06-02T20:46:01.805Z,23.90
2018-06-02T20:48:29.381Z,23.80
2018-06-02T20:50:56.903Z,23.80
2018-06-02T20:53:24.474Z,23.70
2018-06-02T20:55:52.047Z,23.70
2018-06-02T20:58:19.614Z,23.70
2018-06-02T21:00:47.172Z,23.70
2018-06-02T21:03:14.731Z,23.70
2018-06-02T21:05:42.302Z,23.60
2018-06-02T21:08:09.852Z,23.60
2018-06-02T21:10:37.431Z,23.60
2018-06-02T21:13:04.978Z,23.60
2018-06-02T21:15:32.551Z,23.60
2018-06-02T21:18:00.116Z,23.60
2018-06-02T21:20:27.650Z,23.60
2018-06-02T21:22:55.209Z,23.60
2018-06-02T21:25:22.768Z,23.60
2018-06-02T21:27:50.362Z,23.50
2018-06-02T21:30:17.933Z,23.60
2018-06-02T21:32:46.268Z,23.40
2018-06-02T21:35:13.817Z,23.40
2018-06-02T21:37:41.411Z,23.30
2018-06-02T21:40:08.985Z,23.30
2018-06-02T21:42:37.279Z,23.40
2018-06-02T21:45:04.875Z,23.40
2018-06-02T21:47:32.501Z,23.30
2018-06-02T21:50:00.023Z,23.30
2018-06-02T21:52:27.581Z,23.30
2018-06-02T21:54:55.119Z,23.30
2018-06-02T21:57:22.707Z,23.30
2018-06-02T21:59:50.243Z,23.30
2018-06-02T22:02:17.883Z,23.20
2018-06-02T22:04:45.424Z,23.20
2018-06-02T22:07:12.983Z,23.10
2018-06-02T22:09:40.514Z,23.10
2018-06-02T22:12:08.103Z,23.00
2018-06-02T22:14:35.705Z,23.00
2018-06-02T22:17:03.227Z,23.00
2018-06-02T22:19:30.802Z,23.00
2018-06-02T22:21:58.337Z,23.00
2018-06-02T22:24:25.898Z,22.90
2018-06-02T22:26:53.464Z,23.00
2018-06-02T22:29:20.991Z,22.80
2018-06-02T22:31:48.560Z,22.80
2018-06-02T22:34:16.104Z,22.70
2018-06-02T22:36:43.671Z,22.70
2018-06-02T22:39:11.248Z,22.80
2018-06-02T22:41:39.564Z,22.70
2018-06-02T22:44:07.128Z,22.70
2018-06-02T22:46:34.662Z,22.70
2018-06-02T22:49:02.243Z,22.60
2018-06-02T22:51:41.492Z,22.50
2018-06-02T22:54:09.052Z,22.60
2018-06-02T22:56:36.592Z,22.40
2018-06-02T22:59:04.152Z,22.50
2018-06-02T23:01:31.679Z,22.40
2018-06-02T23:04:00.040Z,22.20
2018-06-02T23:06:28.380Z,22.20
2018-06-02T23:08:55.899Z,22.20
2018-06-02T23:11:23.460Z,22.20
2018-06-02T23:13:50.996Z,22.20
2018-06-02T23:16:18.580Z,22.20
2018-06-02T23:18:46.104Z,22.10
2018-06-02T23:21:13.683Z,22.20
2018-06-02T23:23:41.212Z,22.20
2018-06-02T23:26:08.763Z,22.10
2018-06-02T23:28:36.328Z,22.10
2018-06-02T23:31:04.656Z,22.10
2018-06-02T23:33:32.225Z,22.00
2018-06-02T23:35:59.800Z,22.10
2018-06-02T23:38:27.375Z,22.10
2018-06-02T23:40:55.788Z,22.10
2018-06-02T23:43:23.343Z,22.00
2018-06-02T23:45:50.919Z,22.10
2018-06-02T23:48:18.476Z,22.00
2018-06-02T23:50:46.012Z,22.10
2018-06-02T23:53:13.589Z,22.00
2018-06-02T23:55:41.116Z,22.00
2018-06-02T23:58:08.655Z,22.00
